Time;durP1;ratioP1;P1;durP2;ratioP2;P2;SDS_P1;SDS_P2;PMS_P1;PMS_P2;Temp;Humidity;BMP_temperature;BMP_pressure;BME280_temperature;BME280_humidity;BME280_pressure;Samples;Min_cycle;Max_cycle;Signal;HPM_P1;HPM_P2
2023/03/16 00:01:34;;;;;;;2.78;1.60;;;;;;;19.66;33.82;101758.78;5062160;28;20079;-73
2023/03/16 00:04:01;;;;;;;2.25;1.60;;;;;;;19.82;34.05;101785.09;5071023;28;20021;-73
2023/03/16 00:06:26;;;;;;;2.38;1.40;;;;;;;19.58;34.20;101754.16;5050760;28;20064;-74
2023/03/16 00:08:51;;;;;;;2.83;1.65;;;;;;;19.50;33.74;101737.88;5045374;28;20026;-73
2023/03/16 00:11:16;;;;;;;3.08;1.45;;;;;;;19.20;33.75;101698.63;5051975;28;20026;-73
2023/03/16 00:13:42;;;;;;;1.83;1.20;;;;;;;19.62;33.66;101771.72;5054175;28;20045;-73
2023/03/16 00:16:07;;;;;;;2.25;1.65;;;;;;;19.72;33.94;101783.31;5055231;28;20032;-73
2023/03/16 00:18:37;;;;;;;3.03;1.52;;;;;;;19.72;33.70;101793.28;5057420;28;20029;-73
2023/03/16 00:21:04;;;;;;;1.83;1.20;;;;;;;19.71;33.64;101791.59;5067592;28;20114;-74
2023/03/16 00:23:34;;;;;;;3.10;1.70;;;;;;;19.67;33.90;101790.19;5055464;28;20100;-74
2023/03/16 00:26:02;;;;;;;1.83;1.58;;;;;;;19.52;33.78;101775.47;5058704;28;20140;-73
2023/03/16 00:28:29;;;;;;;2.20;1.50;;;;;;;19.64;33.69;101788.63;5061081;28;20081;-74
2023/03/16 00:30:58;;;;;;;2.03;1.60;;;;;;;19.10;33.56;101706.75;5050844;28;20040;-74
2023/03/16 00:33:24;;;;;;;2.83;1.50;;;;;;;19.62;33.87;101787.06;5055699;28;20409;-74
2023/03/16 00:35:49;;;;;;;1.92;1.40;;;;;;;19.53;33.91;101769.91;5052735;28;20036;-73
2023/03/16 00:38:16;;;;;;;2.45;1.50;;;;;;;19.59;33.96;101768.47;5047206;28;20029;-74
2023/03/16 00:40:42;;;;;;;2.20;1.73;;;;;;;19.57;33.64;101763.22;5060887;28;20135;-74
2023/03/16 00:43:07;;;;;;;2.42;1.48;;;;;;;19.28;33.76;101720.25;5034865;28;20111;-75
2023/03/16 00:45:33;;;;;;;1.67;1.40;;;;;;;19.42;33.72;101740.47;5061012;28;20037;-72
2023/03/16 00:47:58;;;;;;;1.63;1.30;;;;;;;19.40;33.86;101726.28;5048631;28;20021;-73
2023/03/16 00:50:23;;;;;;;2.03;1.40;;;;;;;19.53;34.08;101752.88;5060239;28;20485;-73
2023/03/16 00:52:52;;;;;;;2.00;1.40;;;;;;;19.39;33.79;101728.13;5051387;28;20030;-73
2023/03/16 00:55:17;;;;;;;2.50;1.70;;;;;;;19.25;33.72;101703.56;5056698;28;20021;-74
2023/03/16 00:57:43;;;;;;;2.38;1.50;;;;;;;19.28;33.64;101712.16;5064410;28;20102;-73
2023/03/16 01:00:12;;;;;;;2.08;1.33;;;;;;;19.27;34.02;101701.53;5052182;28;20089;-73
2023/03/16 01:02:39;;;;;;;2.00;1.40;;;;;;;19.44;33.84;101728.53;5047734;28;20032;-72
2023/03/16 01:05:04;;;;;;;2.35;1.10;;;;;;;19.40;34.11;101716.34;5069909;28;20070;-72
2023/03/16 01:07:30;;;;;;;2.75;1.58;;;;;;;19.37;33.85;101727.47;5065192;28;20033;-73
2023/03/16 01:09:55;;;;;;;2.40;1.17;;;;;;;19.40;34.13;101728.97;5051236;28;20587;-73
2023/03/16 01:12:20;;;;;;;2.97;1.35;;;;;;;18.87;33.95;101641.63;5055537;28;20033;-74
2023/03/16 01:14:46;;;;;;;2.75;1.60;;;;;;;19.39;33.91;101725.44;5054604;28;20040;-74
2023/03/16 01:17:12;;;;;;;1.92;1.17;;;;;;;19.39;33.85;101717.34;5062091;28;20029;-73
2023/03/16 01:19:38;;;;;;;2.83;1.48;;;;;;;19.10;34.24;101666.31;5048934;28;20051;-73
2023/03/16 01:22:05;;;;;;;2.47;1.50;;;;;;;19.34;34.11;101699.94;5056194;28;20024;-73
2023/03/16 01:24:30;;;;;;;2.13;1.20;;;;;;;19.07;33.79;101663.91;5053527;28;20044;-74
2023/03/16 01:26:56;;;;;;;3.38;1.58;;;;;;;19.37;33.96;101711.28;5064153;28;20030;-73
2023/03/16 01:29:21;;;;;;;2.53;1.30;;;;;;;19.23;34.12;101682.97;5070101;28;20029;-74
2023/03/16 01:31:48;;;;;;;2.28;1.38;;;;;;;19.02;33.96;101641.13;5073511;28;20084;-73
2023/03/16 01:34:16;;;;;;;1.98;1.40;;;;;;;19.34;33.84;101695.41;5054821;28;20359;-73
2023/03/16 01:36:45;;;;;;;2.05;1.23;;;;;;;19.38;34.08;101693.25;5051658;28;20029;-73
2023/03/16 01:39:11;;;;;;;1.88;1.38;;;;;;;19.35;33.98;101683.59;5059709;28;20028;-74
2023/03/16 01:41:37;;;;;;;1.73;1.17;;;;;;;19.30;33.97;101668.88;5061851;28;20033;-73
2023/03/16 01:44:03;;;;;;;2.13;1.20;;;;;;;18.80;33.91;101593.88;5067900;28;20097;-73
2023/03/16 01:46:30;;;;;;;2.25;1.20;;;;;;;19.20;33.97;101659.03;5053614;28;20032;-73
2023/03/16 01:49:08;;;;;;;1.48;1.20;;;;;;;19.22;33.96;101658.88;5076952;28;20101;-74
2023/03/16 01:51:43;;;;;;;1.58;1.30;;;;;;;19.41;33.90;101679.44;5055710;28;20029;-73
2023/03/16 01:54:13;;;;;;;2.45;1.48;;;;;;;19.40;33.82;101683.97;5049648;28;20064;-73
2023/03/16 01:56:56;;;;;;;2.35;1.38;;;;;;;19.41;34.05;101683.00;5063738;28;20032;-72
2023/03/16 01:59:24;;;;;;;2.80;1.23;;;;;;;19.44;33.95;101673.75;5057458;28;20064;-73
2023/03/16 02:01:50;;;;;;;1.92;1.23;;;;;;;19.25;33.63;101650.47;5068457;28;20021;-73
2023/03/16 02:04:27;;;;;;;1.65;1.10;;;;;;;19.44;33.78;101665.66;5060581;28;20029;-74
2023/03/16 02:06:54;;;;;;;2.22;1.20;;;;;;;19.46;33.99;101660.97;5057570;28;20055;-74
2023/03/16 02:09:21;;;;;;;2.95;1.20;;;;;;;19.40;33.48;101650.78;5054354;28;20029;-74
2023/03/16 02:11:46;;;;;;;2.55;1.33;;;;;;;19.30;33.68;101628.44;5049973;28;20040;-74
2023/03/16 02:14:12;;;;;;;2.38;1.52;;;;;;;19.42;33.75;101648.78;5064119;28;20033;-73
2023/03/16 02:16:39;;;;;;;1.80;1.20;;;;;;;19.42;33.68;101660.44;5040937;28;20028;-72
2023/03/16 02:19:10;;;;;;;2.85;1.40;;;;;;;19.34;33.76;101649.56;5057591;28;20028;-73
2023/03/16 02:22:03;;;;;;;2.30;1.20;;;;;;;19.26;33.63;101630.59;5047825;28;20064;-72
2023/03/16 02:24:29;;;;;;;2.45;1.58;;;;;;;19.52;33.68;101663.03;5052591;28;20033;-73
2023/03/16 02:26:58;;;;;;;2.63;1.17;;;;;;;19.53;33.53;101653.94;5041770;28;20047;-73
2023/03/16 02:29:43;;;;;;;;;;;;;;;19.55;33.64;101653.81;5057242;28;20056;-72
2023/03/16 02:32:09;;;;;;;2.13;1.25;;;;;;;19.56;33.48;101648.25;5050916;28;20817;-72
2023/03/16 02:34:34;;;;;;;1.63;1.00;;;;;;;19.50;33.52;101630.00;5067476;28;20025;-72
2023/03/16 02:37:01;;;;;;;2.90;1.20;;;;;;;19.34;33.61;101600.19;5053155;28;20040;-72
2023/03/16 02:39:26;;;;;;;2.20;1.20;;;;;;;19.41;33.84;101612.91;5048017;28;20037;-73
2023/03/16 02:41:51;;;;;;;2.30;1.38;;;;;;;19.58;33.26;101637.28;5052456;28;20037;-72
2023/03/16 02:44:23;;;;;;;2.45;1.27;;;;;;;19.58;33.58;101635.47;5055260;28;20028;-74
2023/03/16 02:46:48;;;;;;;2.25;1.38;;;;;;;19.59;33.68;101630.91;5067573;28;20592;-73
2023/03/16 02:49:43;;;;;;;2.05;1.30;;;;;;;19.60;33.61;101633.44;5051047;28;20092;-72
2023/03/16 02:52:09;;;;;;;2.53;1.30;;;;;;;19.55;33.32;101610.66;5038371;28;20033;-73
2023/03/16 02:54:35;;;;;;;1.88;1.23;;;;;;;19.34;33.28;101578.59;5052225;28;20026;-73
2023/03/16 02:57:00;;;;;;;1.67;1.00;;;;;;;19.38;33.46;101564.66;5062784;28;20036;-73
2023/03/16 02:59:26;;;;;;;2.20;1.30;;;;;;;19.42;33.19;101584.91;5052627;28;20654;-73
2023/03/16 03:01:51;;;;;;;1.15;1.00;;;;;;;19.45;33.50;101587.31;5047879;28;20083;-72
2023/03/16 03:04:16;;;;;;;2.40;1.20;;;;;;;19.43;33.46;101580.38;5051070;28;20079;-73
2023/03/16 03:06:42;;;;;;;1.55;1.30;;;;;;;19.68;33.23;101613.81;5049066;28;20048;-73
2023/03/16 03:09:10;;;;;;;1.48;1.00;;;;;;;19.71;33.37;101617.06;5050734;28;20029;-73
2023/03/16 03:11:36;;;;;;;2.10;1.13;;;;;;;19.65;33.49;101608.72;5047043;28;20036;-73
2023/03/16 03:14:02;;;;;;;2.97;1.10;;;;;;;19.65;33.13;101606.88;5050690;28;20052;-73
2023/03/16 03:16:28;;;;;;;2.70;1.50;;;;;;;19.75;33.26;101614.84;5067698;28;20021;-73
2023/03/16 03:18:53;;;;;;;1.50;1.20;;;;;;;19.52;33.10;101570.50;5067012;28;20029;-73
2023/03/16 03:21:18;;;;;;;2.72;1.13;;;;;;;19.77;33.18;101602.06;5051695;28;20040;-73
2023/03/16 03:23:45;;;;;;;3.42;1.42;;;;;;;19.78;33.19;101603.75;5051509;28;20028;-73
2023/03/16 03:26:11;;;;;;;2.40;1.40;;;;;;;19.65;32.96;101581.75;5056153;28;20040;-73
2023/03/16 03:28:36;;;;;;;1.70;1.20;;;;;;;19.72;33.08;101586.34;5039635;28;20025;-72
2023/03/16 03:31:01;;;;;;;1.55;1.13;;;;;;;19.84;32.95;101596.91;5048757;28;20035;-73
2023/03/16 03:33:27;;;;;;;1.48;1.00;;;;;;;19.80;33.01;101582.88;5049926;28;20032;-73
2023/03/16 03:35:55;;;;;;;1.73;1.10;;;;;;;19.86;33.07;101584.94;5056836;28;20030;-73
2023/03/16 03:38:22;;;;;;;1.88;1.25;;;;;;;19.51;33.15;101518.41;5066065;28;20013;-73
2023/03/16 03:40:52;;;;;;;3.25;1.25;;;;;;;19.65;32.99;101542.13;5064960;28;20060;-73
2023/03/16 03:43:18;;;;;;;1.80;1.25;;;;;;;19.66;32.80;101541.13;5055579;28;20026;-74
2023/03/16 03:45:43;;;;;;;1.27;1.05;;;;;;;19.91;33.11;101577.19;5056818;28;20032;-73
2023/03/16 03:48:08;;;;;;;2.22;1.15;;;;;;;19.68;32.88;101538.28;5067158;28;20021;-74
2023/03/16 03:50:34;;;;;;;1.75;1.25;;;;;;;19.93;32.98;101569.81;5050262;28;20064;-73
2023/03/16 03:52:59;;;;;;;1.75;1.45;;;;;;;19.94;33.12;101566.09;5059315;28;20036;-72
2023/03/16 03:55:24;;;;;;;1.90;1.20;;;;;;;19.67;32.65;101532.03;5054935;28;20049;-73
2023/03/16 03:57:50;;;;;;;3.47;1.50;;;;;;;19.75;32.87;101547.41;5048079;28;20055;-73
2023/03/16 04:00:19;;;;;;;2.92;1.30;;;;;;;19.74;32.90;101529.53;5052882;28;20033;-73
2023/03/16 04:02:44;;;;;;;2.70;1.20;;;;;;;19.86;32.62;101547.16;5057101;28;20037;-72
2023/03/16 04:05:09;;;;;;;1.92;1.17;;;;;;;19.79;32.63;101540.69;5051391;28;20119;-72
2023/03/16 04:07:35;;;;;;;2.13;1.10;;;;;;;20.05;32.77;101574.91;5062641;28;20169;-72
2023/03/16 04:10:00;;;;;;;1.75;1.27;;;;;;;20.07;32.76;101575.63;5053515;28;20715;-72
2023/03/16 04:12:25;;;;;;;2.60;1.38;;;;;;;20.08;32.82;101578.16;5054559;28;20032;-72
2023/03/16 04:14:51;;;;;;;2.13;1.45;;;;;;;20.09;32.63;101579.00;5049717;28;20029;-73
2023/03/16 04:17:16;;;;;;;2.63;1.40;;;;;;;19.70;32.53;101504.72;5047678;28;20033;-73
2023/03/16 04:19:41;;;;;;;2.22;1.40;;;;;;;19.88;32.71;101525.41;5051194;28;20025;-72
2023/03/16 04:22:07;;;;;;;2.63;1.20;;;;;;;20.15;32.77;101575.66;5051833;28;20037;-72
2023/03/16 04:24:33;;;;;;;2.50;1.30;;;;;;;19.97;32.75;101538.78;5048251;28;20478;-73
2023/03/16 04:27:01;;;;;;;3.40;1.25;;;;;;;19.94;32.57;101536.41;5048379;28;20391;-72
2023/03/16 04:29:27;;;;;;;3.25;1.73;;;;;;;20.16;32.58;101559.28;5055209;28;20032;-73
2023/03/16 04:31:52;;;;;;;1.58;1.20;;;;;;;20.20;32.38;101562.53;5055977;28;20021;-73
2023/03/16 04:34:24;;;;;;;2.28;1.40;;;;;;;19.86;32.21;101512.06;5050221;28;20578;-73
2023/03/16 04:36:52;;;;;;;1.80;1.17;;;;;;;19.76;32.60;101492.47;5051846;28;20021;-72
2023/03/16 04:39:20;;;;;;;2.42;1.48;;;;;;;20.01;32.27;101528.53;5067646;28;20022;-72
2023/03/16 04:41:46;;;;;;;2.00;1.30;;;;;;;20.09;32.29;101530.41;5048785;28;20046;-72
2023/03/16 04:44:11;;;;;;;2.67;1.05;;;;;;;19.62;32.48;101455.25;5052601;28;20029;-73
2023/03/16 04:46:36;;;;;;;2.10;1.23;;;;;;;20.26;32.31;101547.53;5046137;28;20029;-73
2023/03/16 04:49:02;;;;;;;1.98;1.17;;;;;;;20.27;32.17;101533.03;5051423;28;20072;-73
2023/03/16 04:51:27;;;;;;;1.70;1.25;;;;;;;20.05;32.38;101496.63;5047733;28;20053;-73
2023/03/16 04:53:53;;;;;;;2.05;1.20;;;;;;;20.14;32.20;101501.94;5064138;28;20478;-73
2023/03/16 04:56:19;;;;;;;2.28;1.05;;;;;;;20.32;32.43;101536.09;5049720;28;20076;-73
2023/03/16 04:58:48;;;;;;;2.40;1.33;;;;;;;20.34;32.42;101534.06;5051289;28;20021;-74
2023/03/16 05:01:14;;;;;;;2.45;1.38;;;;;;;20.16;32.23;101494.50;5046787;28;20088;-73
2023/03/16 05:03:40;;;;;;;2.42;1.40;;;;;;;20.33;32.28;101529.66;5066461;28;20033;-72
2023/03/16 05:06:05;;;;;;;2.47;1.30;;;;;;;20.26;32.00;101525.91;5051913;28;20273;-73
2023/03/16 05:08:30;;;;;;;2.10;1.30;;;;;;;20.37;31.99;101521.06;5066011;28;20093;-71
2023/03/16 05:10:57;;;;;;;2.13;1.20;;;;;;;20.17;32.30;101481.84;5057211;28;20033;-72
2023/03/16 05:13:22;;;;;;;1.73;1.17;;;;;;;20.41;32.16;101530.53;5056576;28;20039;-72
2023/03/16 05:15:48;;;;;;;1.70;1.33;;;;;;;20.25;32.01;101497.22;5054795;28;20064;-73
2023/03/16 05:18:13;;;;;;;2.75;1.40;;;;;;;20.26;32.04;101498.91;5059280;28;20101;-72
2023/03/16 05:20:39;;;;;;;1.98;1.13;;;;;;;20.48;32.23;101522.69;5059554;28;20025;-72
2023/03/16 05:23:07;;;;;;;2.00;1.20;;;;;;;20.50;32.05;101522.50;5057228;28;20024;-73
2023/03/16 05:25:32;;;;;;;3.15;1.20;;;;;;;20.44;32.05;101511.31;5057878;28;20028;-72
2023/03/16 05:27:58;;;;;;;4.20;1.40;;;;;;;20.55;32.06;101520.16;5064589;28;20018;-72
2023/03/16 05:30:23;;;;;;;1.38;0.90;;;;;;;20.42;32.07;101507.91;5055400;28;20045;-71
2023/03/16 05:32:48;;;;;;;2.42;1.10;;;;;;;20.56;32.02;101530.81;5053305;28;20034;-71
2023/03/16 05:35:14;;;;;;;3.33;1.73;;;;;;;20.62;32.49;101521.19;5052332;28;20461;-72
2023/03/16 05:37:40;;;;;;;1.33;1.10;;;;;;;20.66;32.41;101517.16;5069591;28;20032;-71
2023/03/16 05:40:15;;;;;;;2.60;1.05;;;;;;;20.70;32.50;101518.50;5061414;28;20027;-70
2023/03/16 05:42:44;;;;;;;2.35;1.27;;;;;;;20.72;32.36;101519.16;5058554;28;20736;-70
2023/03/16 05:45:10;;;;;;;3.20;1.42;;;;;;;20.51;32.52;101489.06;5062931;28;20056;-69
2023/03/16 05:47:36;;;;;;;3.42;1.17;;;;;;;20.72;32.40;101528.13;5060858;28;20057;-69
2023/03/16 05:50:02;;;;;;;4.35;1.38;;;;;;;20.74;32.48;101522.56;5060939;28;20021;-68
2023/03/16 05:52:28;;;;;;;1.83;1.00;;;;;;;20.77;32.65;101524.91;5059931;28;20033;-68
2023/03/16 05:54:53;;;;;;;3.45;1.42;;;;;;;20.69;32.77;101511.41;5064132;28;20126;-70
2023/03/16 05:57:18;;;;;;;2.25;1.35;;;;;;;20.59;32.92;101491.78;5061885;28;20044;-71
2023/03/16 05:59:43;;;;;;;2.08;1.00;;;;;;;20.53;32.59;101484.38;5059438;28;20056;-71
2023/03/16 06:02:09;;;;;;;1.77;1.00;;;;;;;20.61;32.65;101498.72;5052825;28;20030;-71
2023/03/16 06:04:35;;;;;;;2.63;1.60;;;;;;;20.70;32.88;101505.84;5056955;28;20025;-71
2023/03/16 06:07:01;;;;;;;3.95;1.52;;;;;;;20.89;32.89;101523.59;5060109;28;20045;-70
2023/03/16 06:09:26;;;;;;;2.10;1.60;;;;;;;20.55;32.89;101472.34;5058012;28;20060;-70
2023/03/16 06:11:51;;;;;;;2.55;1.30;;;;;;;20.64;32.80;101478.63;5059622;28;20025;-70
2023/03/16 06:14:17;;;;;;;3.20;1.00;;;;;;;20.92;32.76;101525.13;5061667;28;20024;-70
2023/03/16 06:16:42;;;;;;;3.53;1.40;;;;;;;20.94;32.91;101507.75;5058887;28;20025;-71
2023/03/16 06:19:07;;;;;;;2.70;1.20;;;;;;;20.88;32.94;101503.00;5061123;28;20013;-69
2023/03/16 06:21:32;;;;;;;2.50;1.27;;;;;;;20.95;32.93;101504.03;5062333;28;20031;-70
2023/03/16 06:23:58;;;;;;;3.40;1.45;;;;;;;20.96;32.48;101511.09;5062029;28;20022;-69
2023/03/16 06:26:23;;;;;;;2.42;1.45;;;;;;;20.98;32.46;101510.94;5072203;28;20374;-70
2023/03/16 06:28:48;;;;;;;2.40;1.10;;;;;;;20.96;32.43;101503.00;5051019;28;20040;-69
2023/03/16 06:31:14;;;;;;;3.63;1.10;;;;;;;20.71;32.74;101452.63;5048151;28;20033;-69
2023/03/16 06:33:40;;;;;;;1.90;1.20;;;;;;;21.04;32.65;101498.63;5054214;28;20025;-73
2023/03/16 06:36:06;;;;;;;1.70;1.00;;;;;;;21.05;32.69;101506.56;5055838;28;20017;-70
2023/03/16 06:38:32;;;;;;;2.05;1.20;;;;;;;21.09;32.29;101498.94;5049567;28;20085;-70
2023/03/16 06:40:57;;;;;;;1.60;1.13;;;;;;;20.75;32.69;101448.59;5051129;28;20024;-71
2023/03/16 06:43:22;;;;;;;2.17;1.20;;;;;;;21.03;32.46;101486.13;5053937;28;20044;-71
2023/03/16 06:45:51;;;;;;;1.83;1.35;;;;;;;21.12;32.37;101506.72;5068846;28;20043;-71
2023/03/16 06:48:16;;;;;;;1.23;0.80;;;;;;;20.76;32.55;101439.47;5050126;28;20092;-72
2023/03/16 06:50:44;;;;;;;1.90;1.00;;;;;;;21.14;32.23;101502.81;5053165;28;20056;-70
2023/03/16 06:53:09;;;;;;;1.52;1.10;;;;;;;20.90;32.06;101456.88;5042889;28;20033;-72
2023/03/16 06:55:34;;;;;;;3.08;1.17;;;;;;;20.98;32.16;101467.69;5055772;28;20060;-72
2023/03/16 06:58:00;;;;;;;2.38;1.35;;;;;;;21.13;32.35;101497.59;5055014;28;20128;-72
2023/03/16 07:00:25;;;;;;;3.67;1.27;;;;;;;21.09;32.10;101485.44;5053560;28;20058;-73
2023/03/16 07:02:50;;;;;;;1.98;1.00;;;;;;;20.86;32.18;101440.16;5052153;28;20035;-72
2023/03/16 07:05:16;;;;;;;4.90;1.70;;;;;;;21.23;32.20;101504.50;5054918;28;20053;-73
2023/03/16 07:07:42;;;;;;;1.48;1.08;;;;;;;20.66;32.43;101409.06;5055210;28;20810;-72
2023/03/16 07:10:12;;;;;;;1.38;0.90;;;;;;;21.26;32.21;101511.47;5054977;28;20049;-71
2023/03/16 07:12:38;;;;;;;1.10;0.93;;;;;;;20.70;32.09;101411.25;5053717;28;20029;-72
2023/03/16 07:15:03;;;;;;;2.05;1.05;;;;;;;20.85;32.07;101433.03;5052612;28;20485;-71
2023/03/16 07:17:29;;;;;;;3.10;1.35;;;;;;;21.28;32.04;101504.03;5049892;28;20068;-71
2023/03/16 07:19:54;;;;;;;2.20;1.17;;;;;;;21.23;32.16;101499.09;5050080;28;20037;-71
2023/03/16 07:22:20;;;;;;;2.78;1.27;;;;;;;21.18;31.91;101477.13;5065563;28;20040;-71
2023/03/16 07:24:46;;;;;;;2.08;1.45;;;;;;;21.21;32.24;101487.63;5050715;28;20022;-70
2023/03/16 07:27:11;;;;;;;1.15;1.00;;;;;;;20.77;32.13;101399.75;5052197;28;20055;-70
2023/03/16 07:29:36;;;;;;;2.60;1.02;;;;;;;21.40;32.25;101516.19;5049564;28;20100;-77
2023/03/16 07:32:02;;;;;;;1.55;0.93;;;;;;;21.02;31.94;101452.81;5046758;28;20034;-73
2023/03/16 07:34:28;;;;;;;1.30;0.90;;;;;;;21.45;32.03;101510.28;5056438;28;20029;-73
2023/03/16 07:36:53;;;;;;;1.75;1.10;;;;;;;21.46;31.80;101509.28;5056395;28;20064;-74
2023/03/16 07:39:18;;;;;;;2.30;1.10;;;;;;;21.21;31.93;101473.25;5049183;28;20023;-72
2023/03/16 07:41:43;;;;;;;3.90;1.25;;;;;;;21.33;32.04;101493.56;5049905;28;20033;-75
2023/03/16 07:44:10;;;;;;;4.65;1.23;;;;;;;20.80;31.80;101402.97;5055371;28;20030;-74
2023/03/16 07:46:35;;;;;;;4.18;1.10;;;;;;;21.41;32.06;101498.97;5049346;28;20635;-75
2023/03/16 07:49:01;;;;;;;1.45;1.08;;;;;;;21.61;32.04;101525.66;5048754;28;20030;-77
2023/03/16 07:51:26;;;;;;;4.93;1.38;;;;;;;21.64;31.86;101517.19;5069983;28;20033;-76
2023/03/16 07:53:52;;;;;;;3.40;1.15;;;;;;;21.64;32.08;101517.19;5053513;28;20057;-77
2023/03/16 07:56:18;;;;;;;3.53;1.10;;;;;;;21.30;31.86;101455.16;5049485;28;20025;-76
2023/03/16 07:58:43;;;;;;;2.58;1.25;;;;;;;21.64;31.68;101501.81;5063734;28;20022;-76
2023/03/16 08:01:10;;;;;;;3.03;1.10;;;;;;;21.54;31.46;101479.50;5057559;28;20047;-76
2023/03/16 08:03:36;;;;;;;2.83;1.58;;;;;;;21.43;31.67;101463.63;5053805;28;20029;-75
2023/03/16 08:06:03;;;;;;;2.00;1.25;;;;;;;21.44;31.92;101462.59;5064350;28;20067;-76
2023/03/16 08:08:28;;;;;;;1.92;1.00;;;;;;;21.71;31.33;101507.38;5056909;28;20090;-76
2023/03/16 08:10:53;;;;;;;3.05;1.27;;;;;;;21.43;31.44;101460.91;5061509;28;20020;-75
2023/03/16 08:13:19;;;;;;;1.80;1.10;;;;;;;21.33;31.46;101450.28;5051660;28;20104;-76
2023/03/16 08:15:49;;;;;;;2.88;1.00;;;;;;;21.74;31.59;101515.13;5046116;28;20467;-75
2023/03/16 08:18:14;;;;;;;1.83;1.05;;;;;;;21.15;31.34;101417.13;5055181;28;20063;-74
2023/03/16 08:20:40;;;;;;;1.67;0.90;;;;;;;21.37;31.50;101451.66;5056105;28;20029;-72
2023/03/16 08:23:06;;;;;;;3.38;0.98;;;;;;;21.49;31.85;101479.16;5049894;28;20025;-72
2023/03/16 08:25:31;;;;;;;2.53;1.25;;;;;;;21.48;31.50;101463.94;5059741;28;20080;-74
2023/03/16 08:27:57;;;;;;;2.17;1.02;;;;;;;21.55;31.17;101472.25;5048521;28;20383;-74
2023/03/16 08:30:22;;;;;;;2.83;0.95;;;;;;;21.71;31.26;101488.44;5054482;28;20488;-74
2023/03/16 08:32:49;;;;;;;1.17;0.80;;;;;;;21.44;31.31;101446.38;5050839;28;20074;-74
2023/03/16 08:35:15;;;;;;;2.63;1.20;;;;;;;21.76;31.48;101502.28;5055009;28;20025;-75
2023/03/16 08:37:41;;;;;;;2.45;1.00;;;;;;;21.76;31.14;101501.44;5052689;28;20017;-75
2023/03/16 08:40:09;;;;;;;2.65;1.73;;;;;;;21.77;31.49;101495.84;5067629;28;20064;-75
2023/03/16 08:42:37;;;;;;;3.60;1.10;;;;;;;21.65;31.36;101467.47;5048066;28;20035;-76
2023/03/16 08:45:08;;;;;;;4.68;1.20;;;;;;;21.81;31.29;101496.34;5053861;28;20098;-77
2023/03/16 08:47:34;;;;;;;3.42;1.00;;;;;;;21.81;31.66;101497.19;5054384;28;20043;-77
2023/03/16 08:50:00;;;;;;;1.83;1.08;;;;;;;21.75;31.49;101495.19;5050081;28;20032;-78
2023/03/16 08:52:25;;;;;;;3.05;0.80;;;;;;;21.60;31.55;101467.16;5054247;28;20024;-77
2023/03/16 08:54:50;;;;;;;1.60;1.00;;;;;;;21.75;31.68;101492.50;5048794;28;20021;-74
2023/03/16 08:57:16;;;;;;;2.38;1.17;;;;;;;21.85;31.42;101503.13;5050761;28;20025;-76
2023/03/16 08:59:41;;;;;;;3.13;1.00;;;;;;;21.66;31.39;101474.56;5048228;28;20034;-75
2023/03/16 09:02:12;;;;;;;4.43;1.10;;;;;;;21.73;31.55;101472.84;5049942;28;20112;-77
2023/03/16 09:04:37;;;;;;;4.47;0.88;;;;;;;21.91;31.88;101494.28;5062327;28;20433;-76
2023/03/16 09:07:03;;;;;;;5.53;0.98;;;;;;;21.63;31.53;101446.00;5067845;28;20065;-78
2023/03/16 09:09:29;;;;;;;3.90;1.00;;;;;;;21.94;31.76;101489.38;5063176;28;20064;-78
2023/03/16 09:11:54;;;;;;;1.50;0.80;;;;;;;21.95;31.74;101491.03;5070428;28;20029;-78
2023/03/16 09:14:20;;;;;;;3.15;0.80;;;;;;;21.82;31.75;101462.84;5049148;28;20025;-78
2023/03/16 09:16:45;;;;;;;1.63;0.90;;;;;;;;;;5072084;28;20071;-79
2023/03/16 09:19:10;;;;;;;2.67;0.98;;;;;;;22.01;31.71;101477.84;5055266;28;20029;-75
2023/03/16 09:21:36;;;;;;;2.58;1.10;;;;;;;22.01;31.45;101485.97;5053623;28;20033;-76
2023/03/16 09:24:01;;;;;;;2.20;1.05;;;;;;;21.93;31.45;101471.44;5066244;28;20024;-74
2023/03/16 09:26:27;;;;;;;2.58;1.10;;;;;;;21.99;31.62;101464.47;5049882;28;20029;-75
2023/03/16 09:28:53;;;;;;;2.03;1.00;;;;;;;21.17;31.67;101328.59;5039450;28;20056;-76
2023/03/16 09:31:18;;;;;;;1.73;1.40;;;;;;;;;;5051730;28;20048;-74
2023/03/16 09:33:45;;;;;;;2.17;0.95;;;;;;;22.00;31.76;101451.78;5059387;28;20024;-74
2023/03/16 09:36:10;;;;;;;1.92;1.08;;;;;;;21.86;31.93;101434.41;5067360;28;20022;-76
2023/03/16 09:38:37;;;;;;;1.63;1.20;;;;;;;21.96;31.90;101449.44;5055091;28;20024;-76
2023/03/16 09:41:29;;;;;;;2.60;0.93;;;;;;;22.02;31.69;101450.59;5040265;28;20118;-76
2023/03/16 09:44:29;;;;;;;1.88;1.45;;;;;;;22.05;31.47;101444.84;5066632;28;20027;-74
2023/03/16 09:46:56;;;;;;;2.00;1.20;;;;;;;21.71;31.52;101399.13;5062277;28;20051;-73
2023/03/16 09:49:24;;;;;;;2.50;1.02;;;;;;;21.73;31.53;101380.84;5052620;28;20022;-76
2023/03/16 09:52:05;;;;;;;2.55;1.33;;;;;;;21.96;31.47;101422.38;5049876;28;20021;-74
2023/03/16 09:54:38;;;;;;;2.38;1.00;;;;;;;22.10;31.73;101433.47;5052287;28;20781;-76
2023/03/16 09:57:04;;;;;;;2.10;1.00;;;;;;;22.09;31.57;101440.75;5058167;28;20032;-76
2023/03/16 09:59:29;;;;;;;2.00;1.05;;;;;;;21.99;31.61;101417.59;5053528;28;20071;-73
2023/03/16 10:02:22;;;;;;;2.75;1.08;;;;;;;22.12;31.32;101443.13;5051540;28;20534;-74
2023/03/16 10:05:05;;;;;;;0.95;0.73;;;;;;;22.13;31.67;101428.56;5061427;28;20043;-75
2023/03/16 10:07:52;;;;;;;1.42;0.90;;;;;;;22.16;31.48;101432.78;5059638;28;20106;-75
2023/03/16 10:10:52;;;;;;;1.73;0.90;;;;;;;22.18;31.38;101434.28;5049509;28;20033;-73
2023/03/16 10:13:28;;;;;;;1.35;0.98;;;;;;;21.86;31.44;101383.81;5058702;28;20052;-74
2023/03/16 10:15:55;;;;;;;3.25;0.82;;;;;;;22.18;31.28;101434.28;5047198;28;20025;-75
2023/03/16 10:18:26;;;;;;;1.92;0.80;;;;;;;21.86;31.60;101374.84;5068101;28;20021;-75
2023/03/16 10:20:52;;;;;;;3.13;1.42;;;;;;;21.81;31.42;101382.66;5061524;28;20040;-75
2023/03/16 10:23:21;;;;;;;2.13;1.10;;;;;;;21.91;31.25;101380.56;5062231;28;20426;-75
2023/03/16 10:25:52;;;;;;;2.92;0.90;;;;;;;21.76;31.09;101356.13;5071218;28;20040;-74
2023/03/16 10:28:28;;;;;;;1.65;0.93;;;;;;;22.12;31.37;101415.16;5049071;28;20033;-75
2023/03/16 10:30:56;;;;;;;2.60;0.80;;;;;;;21.98;31.28;101388.84;5059683;28;20709;-74
2023/03/16 10:33:39;;;;;;;1.90;0.88;;;;;;;21.77;31.54;101351.56;5073365;28;20025;-76
2023/03/16 10:36:28;;;;;;;1.73;0.80;;;;;;;22.19;31.03;101418.88;5053068;28;20067;-75
2023/03/16 10:38:58;;;;;;;2.65;0.90;;;;;;;22.12;31.47;101424.16;5065884;28;20485;-74
2023/03/16 10:41:31;;;;;;;1.40;0.95;;;;;;;22.18;31.69;101422.63;5053255;28;20089;-75
2023/03/16 10:44:11;;;;;;;2.72;1.17;;;;;;;22.14;31.47;101422.13;5059404;28;20037;-74
2023/03/16 10:46:37;;;;;;;1.65;0.90;;;;;;;22.13;31.29;101415.03;5050594;28;20181;-73
2023/03/16 10:49:02;;;;;;;1.70;0.90;;;;;;;21.73;31.43;101359.19;5050192;28;20104;-74
2023/03/16 10:51:30;;;;;;;2.97;1.00;;;;;;;22.10;31.57;101417.22;5070548;28;20543;-75
2023/03/16 10:54:48;;;;;;;2.05;0.82;;;;;;;22.12;31.25;101417.88;5051907;28;20025;-74
2023/03/16 10:57:24;;;;;;;2.55;1.00;;;;;;;22.09;31.55;101400.13;5037506;28;20097;-75
2023/03/16 10:59:51;;;;;;;2.17;1.13;;;;;;;21.84;31.46;101341.72;5066717;28;20044;-75
2023/03/16 11:02:22;;;;;;;3.25;1.00;;;;;;;22.15;31.44;101406.72;5053092;28;20045;-74
2023/03/16 11:04:48;;;;;;;2.70;1.17;;;;;;;22.09;31.48;101389.28;5053808;28;20025;-74
2023/03/16 11:07:16;;;;;;;2.15;0.95;;;;;;;22.17;31.17;101400.13;5050979;28;20031;-74
2023/03/16 11:09:42;;;;;;;1.20;0.70;;;;;;;22.20;31.18;101385.34;5061882;28;20040;-73
2023/03/16 11:12:22;;;;;;;1.05;0.60;;;;;;;22.09;31.49;101369.47;5049540;28;20032;-75
2023/03/16 11:14:48;;;;;;;0.93;0.50;;;;;;;22.21;31.32;101382.47;5063564;28;20088;-75
2023/03/16 11:17:50;;;;;;;3.22;1.02;;;;;;;22.34;31.34;101392.69;5051981;28;20037;-74
2023/03/16 11:20:27;;;;;;;1.20;0.70;;;;;;;22.40;31.27;101383.88;5040752;28;20037;-75
2023/03/16 11:22:53;;;;;;;1.40;0.70;;;;;;;22.43;31.25;101399.78;5063524;28;20044;-74
2023/03/16 11:25:19;;;;;;;1.20;0.75;;;;;;;22.46;31.05;101374.16;5050884;28;20029;-74
2023/03/16 11:27:56;;;;;;;0.98;0.60;;;;;;;22.52;30.96;101373.47;5048068;28;20028;-74
2023/03/16 11:30:29;;;;;;;1.60;0.63;;;;;;;22.54;31.13;101378.69;5050711;28;20087;-74